sensor_id;sensor_type;location;lat;lon;timestamp;temperature;humidity
8002;DHT22;4046;48.774;8.732;2023-12-20T00:02:53;22.50;68.00
8002;DHT22;4046;48.774;8.732;2023-12-20T00:05:32;22.50;68.00
8002;DHT22;4046;48.774;8.732;2023-12-20T00:07:59;22.50;68.10
8002;DHT22;4046;48.774;8.732;2023-12-20T00:10:25;22.50;68.10
8002;DHT22;4046;48.774;8.732;2023-12-20T00:12:50;22.50;68.10
8002;DHT22;4046;48.774;8.732;2023-12-20T00:15:16;22.60;68.20
8002;DHT22;4046;48.774;8.732;2023-12-20T00:17:42;22.50;68.20
8002;DHT22;4046;48.774;8.732;2023-12-20T00:20:08;22.50;68.10
8002;DHT22;4046;48.774;8.732;2023-12-20T00:22:33;22.50;68.00
8002;DHT22;4046;48.774;8.732;2023-12-20T00:25:23;22.50;68.20
8002;DHT22;4046;48.774;8.732;2023-12-20T00:28:35;22.50;68.00
8002;DHT22;4046;48.774;8.732;2023-12-20T00:34:29;22.50;68.10
8002;DHT22;4046;48.774;8.732;2023-12-20T00:36:55;22.50;68.10
8002;DHT22;4046;48.774;8.732;2023-12-20T00:39:21;22.50;68.10
8002;DHT22;4046;48.774;8.732;2023-12-20T00:41:46;22.50;68.10
8002;DHT22;4046;48.774;8.732;2023-12-20T00:44:12;22.50;68.10
8002;DHT22;4046;48.774;8.732;2023-12-20T00:46:38;22.50;68.10
8002;DHT22;4046;48.774;8.732;2023-12-20T00:49:04;22.50;68.00
8002;DHT22;4046;48.774;8.732;2023-12-20T00:51:30;22.50;68.00
8002;DHT22;4046;48.774;8.732;2023-12-20T00:53:55;22.50;68.10
8002;DHT22;4046;48.774;8.732;2023-12-20T00:56:21;22.50;68.10
8002;DHT22;4046;48.774;8.732;2023-12-20T00:58:47;22.50;68.10
8002;DHT22;4046;48.774;8.732;2023-12-20T01:01:26;22.50;68.20
8002;DHT22;4046;48.774;8.732;2023-12-20T01:04:41;22.40;68.10
8002;DHT22;4046;48.774;8.732;2023-12-20T01:10:45;22.40;68.30
8002;DHT22;4046;48.774;8.732;2023-12-20T01:13:54;22.70;68.60
8002;DHT22;4046;48.774;8.732;2023-12-20T01:17:08;22.40;68.30
8002;DHT22;4046;48.774;8.732;2023-12-20T01:20:31;22.30;68.30
8002;DHT22;4046;48.774;8.732;2023-12-20T01:23:48;22.30;68.20
8002;DHT22;4046;48.774;8.732;2023-12-20T01:27:23;22.30;68.40
8002;DHT22;4046;48.774;8.732;2023-12-20T01:30:00;22.30;68.40
8002;DHT22;4046;48.774;8.732;2023-12-20T01:32:26;22.30;68.40
8002;DHT22;4046;48.774;8.732;2023-12-20T01:34:52;22.30;68.40
8002;DHT22;4046;48.774;8.732;2023-12-20T01:37:18;22.30;68.40
8002;DHT22;4046;48.774;8.732;2023-12-20T01:39:43;22.30;68.50
8002;DHT22;4046;48.774;8.732;2023-12-20T01:42:09;22.30;68.50
8002;DHT22;4046;48.774;8.732;2023-12-20T01:44:35;22.30;68.40
8002;DHT22;4046;48.774;8.732;2023-12-20T01:47:00;22.30;68.40
8002;DHT22;4046;48.774;8.732;2023-12-20T01:49:27;22.30;68.50
8002;DHT22;4046;48.774;8.732;2023-12-20T01:51:53;22.30;68.40
8002;DHT22;4046;48.774;8.732;2023-12-20T01:54:19;22.30;68.40
8002;DHT22;4046;48.774;8.732;2023-12-20T01:56:46;22.30;68.40
8002;DHT22;4046;48.774;8.732;2023-12-20T01:59:12;22.30;68.40
8002;DHT22;4046;48.774;8.732;2023-12-20T02:01:38;22.30;68.30
8002;DHT22;4046;48.774;8.732;2023-12-20T02:04:04;22.30;68.30
8002;DHT22;4046;48.774;8.732;2023-12-20T02:06:30;22.30;68.40
8002;DHT22;4046;48.774;8.732;2023-12-20T02:09:16;22.30;68.40
8002;DHT22;4046;48.774;8.732;2023-12-20T02:12:25;22.30;68.30
8002;DHT22;4046;48.774;8.732;2023-12-20T02:15:36;22.30;68.40
8002;DHT22;4046;48.774;8.732;2023-12-20T02:21:39;22.30;68.40
8002;DHT22;4046;48.774;8.732;2023-12-20T02:24:05;22.30;68.40
8002;DHT22;4046;48.774;8.732;2023-12-20T02:26:32;22.30;68.50
8002;DHT22;4046;48.774;8.732;2023-12-20T02:28:59;22.30;68.50
8002;DHT22;4046;48.774;8.732;2023-12-20T02:31:25;22.40;68.50
8002;DHT22;4046;48.774;8.732;2023-12-20T02:33:51;22.40;68.50
8002;DHT22;4046;48.774;8.732;2023-12-20T02:36:16;22.40;68.50
8002;DHT22;4046;48.774;8.732;2023-12-20T02:38:42;22.40;68.40
8002;DHT22;4046;48.774;8.732;2023-12-20T02:41:08;22.40;68.40
8002;DHT22;4046;48.774;8.732;2023-12-20T02:43:34;22.40;68.50
8002;DHT22;4046;48.774;8.732;2023-12-20T02:45:59;22.40;68.40
8002;DHT22;4046;48.774;8.732;2023-12-20T02:48:25;22.40;68.50
8002;DHT22;4046;48.774;8.732;2023-12-20T02:50:51;22.40;68.40
8002;DHT22;4046;48.774;8.732;2023-12-20T02:53:17;22.40;68.40
8002;DHT22;4046;48.774;8.732;2023-12-20T02:55:42;22.40;68.40
8002;DHT22;4046;48.774;8.732;2023-12-20T02:58:08;22.30;68.50
8002;DHT22;4046;48.774;8.732;2023-12-20T03:00:34;22.40;68.40
8002;DHT22;4046;48.774;8.732;2023-12-20T03:03:00;22.40;68.50
8002;DHT22;4046;48.774;8.732;2023-12-20T03:05:25;22.40;68.40
8002;DHT22;4046;48.774;8.732;2023-12-20T03:07:51;22.40;68.40
8002;DHT22;4046;48.774;8.732;2023-12-20T03:10:18;22.40;68.40
8002;DHT22;4046;48.774;8.732;2023-12-20T03:12:58;22.40;68.40
8002;DHT22;4046;48.774;8.732;2023-12-20T03:16:00;22.50;68.50
8002;DHT22;4046;48.774;8.732;2023-12-20T03:18:58;22.50;68.40
8002;DHT22;4046;48.774;8.732;2023-12-20T03:21:58;22.50;68.50
8002;DHT22;4046;48.774;8.732;2023-12-20T03:25:20;22.40;68.40
8002;DHT22;4046;48.774;8.732;2023-12-20T03:28:14;22.40;68.50
8002;DHT22;4046;48.774;8.732;2023-12-20T03:30:55;22.40;68.40
8002;DHT22;4046;48.774;8.732;2023-12-20T03:34:19;22.40;68.40
8002;DHT22;4046;48.774;8.732;2023-12-20T03:37:05;22.40;68.50
8002;DHT22;4046;48.774;8.732;2023-12-20T03:40:18;22.40;68.40
8002;DHT22;4046;48.774;8.732;2023-12-20T03:42:58;22.40;68.50
8002;DHT22;4046;48.774;8.732;2023-12-20T03:45:38;22.40;68.40
8002;DHT22;4046;48.774;8.732;2023-12-20T03:48:51;22.40;68.50
8002;DHT22;4046;48.774;8.732;2023-12-20T03:51:17;22.50;68.60
8002;DHT22;4046;48.774;8.732;2023-12-20T03:53:43;22.50;68.60
8002;DHT22;4046;48.774;8.732;2023-12-20T03:56:08;22.50;68.50
8002;DHT22;4046;48.774;8.732;2023-12-20T03:58:34;22.50;68.50
8002;DHT22;4046;48.774;8.732;2023-12-20T04:01:31;22.50;68.50
8002;DHT22;4046;48.774;8.732;2023-12-20T04:04:40;22.50;68.40
8002;DHT22;4046;48.774;8.732;2023-12-20T04:07:47;22.50;68.40
8002;DHT22;4046;48.774;8.732;2023-12-20T04:10:30;22.50;68.50
8002;DHT22;4046;48.774;8.732;2023-12-20T04:13:30;22.50;68.50
8002;DHT22;4046;48.774;8.732;2023-12-20T04:16:06;22.50;68.50
8002;DHT22;4046;48.774;8.732;2023-12-20T04:18:31;22.50;68.60
8002;DHT22;4046;48.774;8.732;2023-12-20T04:20:57;22.50;68.50
8002;DHT22;4046;48.774;8.732;2023-12-20T04:23:23;22.50;68.50
8002;DHT22;4046;48.774;8.732;2023-12-20T04:25:48;22.50;68.50
8002;DHT22;4046;48.774;8.732;2023-12-20T04:28:14;22.50;68.50
8002;DHT22;4046;48.774;8.732;2023-12-20T04:30:40;22.50;68.50
8002;DHT22;4046;48.774;8.732;2023-12-20T04:33:05;22.50;68.50
8002;DHT22;4046;48.774;8.732;2023-12-20T04:35:31;22.50;68.50
8002;DHT22;4046;48.774;8.732;2023-12-20T04:38:12;22.70;68.60
8002;DHT22;4046;48.774;8.732;2023-12-20T04:41:13;22.50;68.50
8002;DHT22;4046;48.774;8.732;2023-12-20T04:44:31;22.50;68.50
8002;DHT22;4046;48.774;8.732;2023-12-20T04:47:29;22.50;68.50
8002;DHT22;4046;48.774;8.732;2023-12-20T04:49:58;22.50;68.50
8002;DHT22;4046;48.774;8.732;2023-12-20T04:52:25;22.50;68.50
8002;DHT22;4046;48.774;8.732;2023-12-20T04:54:50;22.70;68.80
8002;DHT22;4046;48.774;8.732;2023-12-20T04:57:16;22.50;68.50
8002;DHT22;4046;48.774;8.732;2023-12-20T04:59:42;22.50;68.50
8002;DHT22;4046;48.774;8.732;2023-12-20T05:02:07;22.50;68.60
8002;DHT22;4046;48.774;8.732;2023-12-20T05:04:33;22.50;68.60
8002;DHT22;4046;48.774;8.732;2023-12-20T05:06:59;22.50;68.50
8002;DHT22;4046;48.774;8.732;2023-12-20T05:09:41;22.50;68.60
8002;DHT22;4046;48.774;8.732;2023-12-20T05:12:39;22.50;68.50
8002;DHT22;4046;48.774;8.732;2023-12-20T05:15:08;22.50;68.40
8002;DHT22;4046;48.774;8.732;2023-12-20T05:17:34;22.50;68.50
8002;DHT22;4046;48.774;8.732;2023-12-20T05:20:00;22.50;68.40
8002;DHT22;4046;48.774;8.732;2023-12-20T05:22:26;22.60;68.60
8002;DHT22;4046;48.774;8.732;2023-12-20T05:25:09;22.50;68.50
8002;DHT22;4046;48.774;8.732;2023-12-20T05:28:19;22.60;68.60
8002;DHT22;4046;48.774;8.732;2023-12-20T05:31:13;22.50;68.50
8002;DHT22;4046;48.774;8.732;2023-12-20T05:34:12;22.50;68.50
8002;DHT22;4046;48.774;8.732;2023-12-20T05:37:12;22.50;68.50
8002;DHT22;4046;48.774;8.732;2023-12-20T05:39:40;22.50;68.60
8002;DHT22;4046;48.774;8.732;2023-12-20T05:42:06;22.50;68.60
8002;DHT22;4046;48.774;8.732;2023-12-20T05:44:32;22.60;68.70
8002;DHT22;4046;48.774;8.732;2023-12-20T05:47:01;22.50;68.40
8002;DHT22;4046;48.774;8.732;2023-12-20T05:49:58;22.60;68.70
8002;DHT22;4046;48.774;8.732;2023-12-20T05:52:47;22.60;68.60
8002;DHT22;4046;48.774;8.732;2023-12-20T05:55:47;22.60;68.60
8002;DHT22;4046;48.774;8.732;2023-12-20T05:58:23;22.50;68.60
8002;DHT22;4046;48.774;8.732;2023-12-20T06:01:29;22.60;68.60
8002;DHT22;4046;48.774;8.732;2023-12-20T06:04:16;22.60;68.60
8002;DHT22;4046;48.774;8.732;2023-12-20T06:07:02;22.60;68.60
8002;DHT22;4046;48.774;8.732;2023-12-20T06:09:46;22.60;68.60
8002;DHT22;4046;48.774;8.732;2023-12-20T06:12:33;22.50;68.60
8002;DHT22;4046;48.774;8.732;2023-12-20T06:18:58;22.60;68.60
8002;DHT22;4046;48.774;8.732;2023-12-20T06:21:56;22.50;68.50
8002;DHT22;4046;48.774;8.732;2023-12-20T06:25:16;22.50;68.60
8002;DHT22;4046;48.774;8.732;2023-12-20T06:27:56;22.50;69.40
8002;DHT22;4046;48.774;8.732;2023-12-20T06:30:22;22.60;68.80
8002;DHT22;4046;48.774;8.732;2023-12-20T06:32:48;22.60;68.60
8002;DHT22;4046;48.774;8.732;2023-12-20T06:35:14;22.60;68.60
8002;DHT22;4046;48.774;8.732;2023-12-20T06:37:39;22.60;68.50
8002;DHT22;4046;48.774;8.732;2023-12-20T06:40:09;22.60;68.70
8002;DHT22;4046;48.774;8.732;2023-12-20T06:42:36;22.60;68.60
8002;DHT22;4046;48.774;8.732;2023-12-20T06:45:29;22.60;68.60
8002;DHT22;4046;48.774;8.732;2023-12-20T06:48:39;22.60;68.60
8002;DHT22;4046;48.774;8.732;2023-12-20T06:54:28;22.60;68.70
8002;DHT22;4046;48.774;8.732;2023-12-20T06:59:57;22.50;68.60
8002;DHT22;4046;48.774;8.732;2023-12-20T07:02:43;22.50;68.70
8002;DHT22;4046;48.774;8.732;2023-12-20T07:05:36;22.50;68.60
8002;DHT22;4046;48.774;8.732;2023-12-20T07:11:27;22.60;68.70
8002;DHT22;4046;48.774;8.732;2023-12-20T07:14:20;22.60;68.70
8002;DHT22;4046;48.774;8.732;2023-12-20T07:16:56;22.60;68.70
8002;DHT22;4046;48.774;8.732;2023-12-20T07:19:22;22.60;68.70
8002;DHT22;4046;48.774;8.732;2023-12-20T07:21:49;22.60;68.70
8002;DHT22;4046;48.774;8.732;2023-12-20T07:24:15;22.60;68.60
8002;DHT22;4046;48.774;8.732;2023-12-20T07:26:40;22.60;68.60
8002;DHT22;4046;48.774;8.732;2023-12-20T07:29:06;22.60;68.60
8002;DHT22;4046;48.774;8.732;2023-12-20T07:31:32;22.60;68.60
8002;DHT22;4046;48.774;8.732;2023-12-20T07:33:58;22.60;68.60
8002;DHT22;4046;48.774;8.732;2023-12-20T07:36:23;22.60;68.60
8002;DHT22;4046;48.774;8.732;2023-12-20T07:38:49;22.60;68.60
8002;DHT22;4046;48.774;8.732;2023-12-20T07:41:15;22.60;68.60
8002;DHT22;4046;48.774;8.732;2023-12-20T07:43:46;22.60;68.60
8002;DHT22;4046;48.774;8.732;2023-12-20T07:46:12;22.60;68.60
8002;DHT22;4046;48.774;8.732;2023-12-20T07:48:44;22.60;68.70
8002;DHT22;4046;48.774;8.732;2023-12-20T07:51:19;22.60;68.70
8002;DHT22;4046;48.774;8.732;2023-12-20T07:54:42;22.60;68.60
8002;DHT22;4046;48.774;8.732;2023-12-20T08:00:22;22.70;68.70
8002;DHT22;4046;48.774;8.732;2023-12-20T08:03:26;22.60;68.60
8002;DHT22;4046;48.774;8.732;2023-12-20T08:06:35;22.90;69.00
8002;DHT22;4046;48.774;8.732;2023-12-20T08:10:00;22.60;68.60
8002;DHT22;4046;48.774;8.732;2023-12-20T08:12:52;22.60;68.70
8002;DHT22;4046;48.774;8.732;2023-12-20T08:15:38;22.60;68.60
8002;DHT22;4046;48.774;8.732;2023-12-20T08:18:15;22.60;68.70
8002;DHT22;4046;48.774;8.732;2023-12-20T08:21:12;22.60;68.70
8002;DHT22;4046;48.774;8.732;2023-12-20T08:23:48;22.60;68.70
8002;DHT22;4046;48.774;8.732;2023-12-20T08:26:35;22.60;68.70
8002;DHT22;4046;48.774;8.732;2023-12-20T08:29:25;22.60;68.60
8002;DHT22;4046;48.774;8.732;2023-12-20T08:32:16;22.60;68.60
8002;DHT22;4046;48.774;8.732;2023-12-20T08:35:15;22.60;68.60
8002;DHT22;4046;48.774;8.732;2023-12-20T08:38:31;22.70;68.60
8002;DHT22;4046;48.774;8.732;2023-12-20T08:41:40;22.70;68.50
8002;DHT22;4046;48.774;8.732;2023-12-20T08:45:05;22.80;68.50
8002;DHT22;4046;48.774;8.732;2023-12-20T08:48:22;22.80;68.50
8002;DHT22;4046;48.774;8.732;2023-12-20T08:54:05;23.00;68.20
8002;DHT22;4046;48.774;8.732;2023-12-20T08:56:34;23.20;67.90
8002;DHT22;4046;48.774;8.732;2023-12-20T08:58:59;23.40;67.60
8002;DHT22;4046;48.774;8.732;2023-12-20T09:01:25;23.60;67.20
8002;DHT22;4046;48.774;8.732;2023-12-20T09:03:59;23.90;67.00
8002;DHT22;4046;48.774;8.732;2023-12-20T09:06:36;24.10;66.80
8002;DHT22;4046;48.774;8.732;2023-12-20T09:10:00;24.20;65.60
8002;DHT22;4046;48.774;8.732;2023-12-20T09:12:52;24.20;65.80
8002;DHT22;4046;48.774;8.732;2023-12-20T09:15:25;24.40;65.70
8002;DHT22;4046;48.774;8.732;2023-12-20T09:17:51;24.50;65.50
8002;DHT22;4046;48.774;8.732;2023-12-20T09:20:17;24.70;65.60
8002;DHT22;4046;48.774;8.732;2023-12-20T09:22:43;24.50;65.40
8002;DHT22;4046;48.774;8.732;2023-12-20T09:25:21;24.60;65.40
8002;DHT22;4046;48.774;8.732;2023-12-20T09:28:12;24.80;65.10
8002;DHT22;4046;48.774;8.732;2023-12-20T09:30:37;24.80;65.20
8002;DHT22;4046;48.774;8.732;2023-12-20T09:33:05;24.80;65.00
8002;DHT22;4046;48.774;8.732;2023-12-20T09:35:44;24.90;65.00
8002;DHT22;4046;48.774;8.732;2023-12-20T09:38:22;24.80;64.90
8002;DHT22;4046;48.774;8.732;2023-12-20T09:40:48;24.90;64.90
8002;DHT22;4046;48.774;8.732;2023-12-20T09:43:15;24.70;65.20
8002;DHT22;4046;48.774;8.732;2023-12-20T09:45:46;24.40;65.50
8002;DHT22;4046;48.774;8.732;2023-12-20T09:48:13;24.20;65.70
8002;DHT22;4046;48.774;8.732;2023-12-20T09:50:40;24.50;65.50
8002;DHT22;4046;48.774;8.732;2023-12-20T09:53:25;24.50;65.30
8002;DHT22;4046;48.774;8.732;2023-12-20T09:56:21;24.10;65.80
8002;DHT22;4046;48.774;8.732;2023-12-20T09:59:33;23.70;66.30
8002;DHT22;4046;48.774;8.732;2023-12-20T10:02:13;23.80;66.80
8002;DHT22;4046;48.774;8.732;2023-12-20T10:11:55;23.40;66.60
8002;DHT22;4046;48.774;8.732;2023-12-20T10:14:50;23.40;66.70
8002;DHT22;4046;48.774;8.732;2023-12-20T10:17:16;23.40;66.50
8002;DHT22;4046;48.774;8.732;2023-12-20T10:19:43;23.50;66.40
8002;DHT22;4046;48.774;8.732;2023-12-20T10:22:08;23.80;66.10
8002;DHT22;4046;48.774;8.732;2023-12-20T10:24:35;23.80;66.00
8002;DHT22;4046;48.774;8.732;2023-12-20T10:27:15;24.10;65.40
8002;DHT22;4046;48.774;8.732;2023-12-20T10:29:59;24.40;65.00
8002;DHT22;4046;48.774;8.732;2023-12-20T10:32:27;24.50;64.80
8002;DHT22;4046;48.774;8.732;2023-12-20T10:34:54;24.40;64.90
8002;DHT22;4046;48.774;8.732;2023-12-20T10:37:20;24.40;64.80
8002;DHT22;4046;48.774;8.732;2023-12-20T10:39:50;24.40;65.10
8002;DHT22;4046;48.774;8.732;2023-12-20T10:42:20;24.10;66.00
8002;DHT22;4046;48.774;8.732;2023-12-20T10:45:00;24.00;65.50
8002;DHT22;4046;48.774;8.732;2023-12-20T10:47:40;24.50;65.20
8002;DHT22;4046;48.774;8.732;2023-12-20T10:50:19;24.70;64.60
8002;DHT22;4046;48.774;8.732;2023-12-20T10:52:47;25.00;64.20
8002;DHT22;4046;48.774;8.732;2023-12-20T10:55:13;24.80;64.20
8002;DHT22;4046;48.774;8.732;2023-12-20T10:57:39;24.40;64.60
8002;DHT22;4046;48.774;8.732;2023-12-20T11:00:07;24.40;64.80
8002;DHT22;4046;48.774;8.732;2023-12-20T11:02:39;24.50;64.50
8002;DHT22;4046;48.774;8.732;2023-12-20T11:08:38;24.70;64.20
8002;DHT22;4046;48.774;8.732;2023-12-20T11:14:49;24.50;64.50
8002;DHT22;4046;48.774;8.732;2023-12-20T11:17:19;24.60;64.20
8002;DHT22;4046;48.774;8.732;2023-12-20T11:20:23;24.60;64.20
8002;DHT22;4046;48.774;8.732;2023-12-20T11:23:20;24.50;64.00
8002;DHT22;4046;48.774;8.732;2023-12-20T11:25:54;24.50;64.40
8002;DHT22;4046;48.774;8.732;2023-12-20T11:28:24;24.50;64.60
8002;DHT22;4046;48.774;8.732;2023-12-20T11:30:58;24.60;64.50
8002;DHT22;4046;48.774;8.732;2023-12-20T11:33:46;24.50;64.80
8002;DHT22;4046;48.774;8.732;2023-12-20T11:36:20;24.20;65.30
8002;DHT22;4046;48.774;8.732;2023-12-20T11:38:57;24.10;65.30
8002;DHT22;4046;48.774;8.732;2023-12-20T11:41:23;24.40;64.90
8002;DHT22;4046;48.774;8.732;2023-12-20T11:44:04;24.70;64.50
8002;DHT22;4046;48.774;8.732;2023-12-20T11:46:34;24.80;64.60
8002;DHT22;4046;48.774;8.732;2023-12-20T11:49:28;24.60;64.70
8002;DHT22;4046;48.774;8.732;2023-12-20T11:52:12;24.70;64.60
8002;DHT22;4046;48.774;8.732;2023-12-20T11:54:41;24.80;64.50
8002;DHT22;4046;48.774;8.732;2023-12-20T11:57:07;24.60;64.80
8002;DHT22;4046;48.774;8.732;2023-12-20T11:59:32;24.40;65.10
8002;DHT22;4046;48.774;8.732;2023-12-20T12:01:59;24.40;65.20
8002;DHT22;4046;48.774;8.732;2023-12-20T12:08:16;23.80;65.60
8002;DHT22;4046;48.774;8.732;2023-12-20T12:10:43;23.80;66.20
8002;DHT22;4046;48.774;8.732;2023-12-20T12:13:13;23.90;66.10
8002;DHT22;4046;48.774;8.732;2023-12-20T12:15:52;23.80;66.30
8002;DHT22;4046;48.774;8.732;2023-12-20T12:18:18;23.90;66.10
8002;DHT22;4046;48.774;8.732;2023-12-20T12:20:51;24.10;65.80
8002;DHT22;4046;48.774;8.732;2023-12-20T12:23:45;24.40;65.30
8002;DHT22;4046;48.774;8.732;2023-12-20T12:26:11;24.20;65.70
8002;DHT22;4046;48.774;8.732;2023-12-20T12:28:56;24.00;66.10
8002;DHT22;4046;48.774;8.732;2023-12-20T12:32:01;24.10;65.90
8002;DHT22;4046;48.774;8.732;2023-12-20T12:34:35;24.30;65.50
8002;DHT22;4046;48.774;8.732;2023-12-20T12:37:03;24.20;65.80
8002;DHT22;4046;48.774;8.732;2023-12-20T12:39:30;23.90;66.10
8002;DHT22;4046;48.774;8.732;2023-12-20T12:42:03;23.80;66.50
8002;DHT22;4046;48.774;8.732;2023-12-20T12:44:52;23.70;66.60
8002;DHT22;4046;48.774;8.732;2023-12-20T12:47:18;23.60;66.70
8002;DHT22;4046;48.774;8.732;2023-12-20T12:49:44;23.50;66.80
8002;DHT22;4046;48.774;8.732;2023-12-20T12:52:13;23.40;67.00
8002;DHT22;4046;48.774;8.732;2023-12-20T12:58:15;23.40;67.30
8002;DHT22;4046;48.774;8.732;2023-12-20T13:00:40;23.30;67.10
8002;DHT22;4046;48.774;8.732;2023-12-20T13:03:13;23.30;67.30
8002;DHT22;4046;48.774;8.732;2023-12-20T13:05:39;23.20;67.50
8002;DHT22;4046;48.774;8.732;2023-12-20T13:08:08;23.20;67.70
8002;DHT22;4046;48.774;8.732;2023-12-20T13:10:36;23.10;67.60
8002;DHT22;4046;48.774;8.732;2023-12-20T13:13:03;23.00;67.70
8002;DHT22;4046;48.774;8.732;2023-12-20T13:15:29;23.10;67.70
8002;DHT22;4046;48.774;8.732;2023-12-20T13:17:56;23.00;67.70
8002;DHT22;4046;48.774;8.732;2023-12-20T13:20:21;23.00;67.80
8002;DHT22;4046;48.774;8.732;2023-12-20T13:22:48;23.00;67.80
8002;DHT22;4046;48.774;8.732;2023-12-20T13:25:22;22.90;67.80
8002;DHT22;4046;48.774;8.732;2023-12-20T13:27:49;22.90;68.00
8002;DHT22;4046;48.774;8.732;2023-12-20T13:30:30;22.90;68.00
8002;DHT22;4046;48.774;8.732;2023-12-20T13:33:14;22.90;68.00
8002;DHT22;4046;48.774;8.732;2023-12-20T13:35:55;22.80;68.10
8002;DHT22;4046;48.774;8.732;2023-12-20T13:42:09;22.80;68.10
8002;DHT22;4046;48.774;8.732;2023-12-20T13:45:27;22.70;68.20
8002;DHT22;4046;48.774;8.732;2023-12-20T13:48:02;22.70;68.20
8002;DHT22;4046;48.774;8.732;2023-12-20T13:50:39;22.70;68.30
8002;DHT22;4046;48.774;8.732;2023-12-20T13:53:07;22.70;68.30
8002;DHT22;4046;48.774;8.732;2023-12-20T13:55:45;22.70;68.30
8002;DHT22;4046;48.774;8.732;2023-12-20T13:58:39;22.70;68.30
8002;DHT22;4046;48.774;8.732;2023-12-20T14:01:14;22.70;68.40
8002;DHT22;4046;48.774;8.732;2023-12-20T14:03:44;22.70;68.50
8002;DHT22;4046;48.774;8.732;2023-12-20T14:06:19;22.70;68.30
8002;DHT22;4046;48.774;8.732;2023-12-20T14:09:03;22.70;68.50
8002;DHT22;4046;48.774;8.732;2023-12-20T14:11:38;22.70;68.50
8002;DHT22;4046;48.774;8.732;2023-12-20T14:18:17;22.60;68.60
8002;DHT22;4046;48.774;8.732;2023-12-20T14:20:43;22.60;68.60
8002;DHT22;4046;48.774;8.732;2023-12-20T14:23:38;22.60;68.60
8002;DHT22;4046;48.774;8.732;2023-12-20T14:27:00;22.60;69.30
8002;DHT22;4046;48.774;8.732;2023-12-20T14:29:26;22.60;68.60
8002;DHT22;4046;48.774;8.732;2023-12-20T14:31:52;22.60;68.80
8002;DHT22;4046;48.774;8.732;2023-12-20T14:34:18;22.60;68.70
8002;DHT22;4046;48.774;8.732;2023-12-20T14:36:44;22.60;68.70
8002;DHT22;4046;48.774;8.732;2023-12-20T14:39:10;22.60;68.80
8002;DHT22;4046;48.774;8.732;2023-12-20T14:41:38;22.60;68.80
8002;DHT22;4046;48.774;8.732;2023-12-20T14:44:06;22.60;68.80
8002;DHT22;4046;48.774;8.732;2023-12-20T14:46:55;22.60;68.80
8002;DHT22;4046;48.774;8.732;2023-12-20T14:49:21;22.60;68.70
8002;DHT22;4046;48.774;8.732;2023-12-20T14:51:56;22.60;68.80
8002;DHT22;4046;48.774;8.732;2023-12-20T14:54:30;22.60;68.70
8002;DHT22;4046;48.774;8.732;2023-12-20T14:56:57;22.60;68.80
8002;DHT22;4046;48.774;8.732;2023-12-20T14:59:22;22.60;68.80
8002;DHT22;4046;48.774;8.732;2023-12-20T15:01:54;22.60;68.90
8002;DHT22;4046;48.774;8.732;2023-12-20T15:04:44;22.50;68.80
8002;DHT22;4046;48.774;8.732;2023-12-20T15:07:46;22.60;68.80
8002;DHT22;4046;48.774;8.732;2023-12-20T15:10:14;22.60;68.80
8002;DHT22;4046;48.774;8.732;2023-12-20T15:12:45;22.60;68.90
8002;DHT22;4046;48.774;8.732;2023-12-20T15:15:11;22.60;69.20
8002;DHT22;4046;48.774;8.732;2023-12-20T15:17:41;22.60;70.70
8002;DHT22;4046;48.774;8.732;2023-12-20T15:20:12;22.60;71.10
8002;DHT22;4046;48.774;8.732;2023-12-20T15:22:39;22.60;70.80
8002;DHT22;4046;48.774;8.732;2023-12-20T15:25:07;22.60;70.50
8002;DHT22;4046;48.774;8.732;2023-12-20T15:28:21;22.60;70.20
8002;DHT22;4046;48.774;8.732;2023-12-20T15:30:28;22.60;70.90
8002;DHT22;4046;48.774;8.732;2023-12-20T15:32:55;22.60;70.30
8002;DHT22;4046;48.774;8.732;2023-12-20T15:35:22;22.60;70.10
8002;DHT22;4046;48.774;8.732;2023-12-20T15:37:47;22.50;70.30
8002;DHT22;4046;48.774;8.732;2023-12-20T15:40:25;22.50;70.00
8002;DHT22;4046;48.774;8.732;2023-12-20T15:42:56;22.50;70.00
8002;DHT22;4046;48.774;8.732;2023-12-20T15:45:33;22.50;70.90
8002;DHT22;4046;48.774;8.732;2023-12-20T15:51:44;22.50;71.10
8002;DHT22;4046;48.774;8.732;2023-12-20T15:54:10;22.50;71.00
8002;DHT22;4046;48.774;8.732;2023-12-20T15:56:39;22.50;70.80
8002;DHT22;4046;48.774;8.732;2023-12-20T15:59:19;22.50;70.60
8002;DHT22;4046;48.774;8.732;2023-12-20T16:01:48;22.50;70.50
8002;DHT22;4046;48.774;8.732;2023-12-20T16:04:33;22.50;70.40
8002;DHT22;4046;48.774;8.732;2023-12-20T16:07:40;22.50;70.30
8002;DHT22;4046;48.774;8.732;2023-12-20T16:10:34;22.60;70.40
8002;DHT22;4046;48.774;8.732;2023-12-20T16:13:04;22.50;70.20
8002;DHT22;4046;48.774;8.732;2023-12-20T16:15:29;22.60;70.70
8002;DHT22;4046;48.774;8.732;2023-12-20T16:18:36;22.60;70.80
8002;DHT22;4046;48.774;8.732;2023-12-20T16:21:10;22.60;71.50
8002;DHT22;4046;48.774;8.732;2023-12-20T16:23:36;22.60;71.90
8002;DHT22;4046;48.774;8.732;2023-12-20T16:26:02;22.70;71.70
8002;DHT22;4046;48.774;8.732;2023-12-20T16:28:28;22.60;71.20
8002;DHT22;4046;48.774;8.732;2023-12-20T16:30:54;22.60;71.10
8002;DHT22;4046;48.774;8.732;2023-12-20T16:33:23;22.60;70.90
8002;DHT22;4046;48.774;8.732;2023-12-20T16:35:49;22.60;70.90
8002;DHT22;4046;48.774;8.732;2023-12-20T16:38:15;22.60;70.90
8002;DHT22;4046;48.774;8.732;2023-12-20T16:40:41;22.60;70.80
8002;DHT22;4046;48.774;8.732;2023-12-20T16:43:12;22.60;70.70
8002;DHT22;4046;48.774;8.732;2023-12-20T16:45:38;22.60;70.60
8002;DHT22;4046;48.774;8.732;2023-12-20T16:48:05;22.60;70.50
8002;DHT22;4046;48.774;8.732;2023-12-20T16:50:31;22.60;70.50
8002;DHT22;4046;48.774;8.732;2023-12-20T16:52:58;22.60;70.50
8002;DHT22;4046;48.774;8.732;2023-12-20T16:55:23;22.60;70.40
8002;DHT22;4046;48.774;8.732;2023-12-20T16:57:49;22.70;70.40
8002;DHT22;4046;48.774;8.732;2023-12-20T17:00:16;22.70;70.40
8002;DHT22;4046;48.774;8.732;2023-12-20T17:02:42;22.70;70.30
8002;DHT22;4046;48.774;8.732;2023-12-20T17:05:08;22.70;70.30
8002;DHT22;4046;48.774;8.732;2023-12-20T17:07:44;22.70;70.30
8002;DHT22;4046;48.774;8.732;2023-12-20T17:10:10;22.70;70.30
8002;DHT22;4046;48.774;8.732;2023-12-20T17:12:36;22.70;70.20
8002;DHT22;4046;48.774;8.732;2023-12-20T17:21:31;22.80;70.10
8002;DHT22;4046;48.774;8.732;2023-12-20T17:23:57;22.90;70.20
8002;DHT22;4046;48.774;8.732;2023-12-20T17:26:23;22.90;70.20
8002;DHT22;4046;48.774;8.732;2023-12-20T17:28:49;22.90;70.10
8002;DHT22;4046;48.774;8.732;2023-12-20T17:31:14;22.90;70.00
8002;DHT22;4046;48.774;8.732;2023-12-20T17:33:40;22.90;70.10
8002;DHT22;4046;48.774;8.732;2023-12-20T17:36:07;23.00;70.10
8002;DHT22;4046;48.774;8.732;2023-12-20T17:38:33;23.00;70.00
8002;DHT22;4046;48.774;8.732;2023-12-20T17:42:24;23.00;70.00
8002;DHT22;4046;48.774;8.732;2023-12-20T17:44:46;23.00;69.90
8002;DHT22;4046;48.774;8.732;2023-12-20T17:47:12;23.00;69.90
8002;DHT22;4046;48.774;8.732;2023-12-20T17:49:38;23.00;69.90
8002;DHT22;4046;48.774;8.732;2023-12-20T17:52:04;23.50;70.40
8002;DHT22;4046;48.774;8.732;2023-12-20T17:54:31;23.10;70.00
8002;DHT22;4046;48.774;8.732;2023-12-20T17:56:57;23.10;69.80
8002;DHT22;4046;48.774;8.732;2023-12-20T17:59:25;23.10;69.90
8002;DHT22;4046;48.774;8.732;2023-12-20T18:01:50;23.10;69.90
8002;DHT22;4046;48.774;8.732;2023-12-20T18:04:16;23.10;69.80
8002;DHT22;4046;48.774;8.732;2023-12-20T18:06:45;23.30;70.00
8002;DHT22;4046;48.774;8.732;2023-12-20T18:09:11;23.10;69.80
8002;DHT22;4046;48.774;8.732;2023-12-20T18:11:37;23.10;69.90
8002;DHT22;4046;48.774;8.732;2023-12-20T18:14:03;23.10;69.80